sensor_id;sensor_type;location;lat;lon;timestamp;P1;durP1;ratioP1;P2;durP2;ratioP2
22138;SDS011;25815;52.582;13.408;2023-04-24T00:02:16;4.53;;;3.92;;
22138;SDS011;25815;52.582;13.408;2023-04-24T00:04:42;4.93;;;3.67;;
22138;SDS011;25815;52.582;13.408;2023-04-24T00:07:11;4.93;;;3.92;;
22138;SDS011;25815;52.582;13.408;2023-04-24T00:09:38;5.53;;;4.05;;
22138;SDS011;25815;52.582;13.408;2023-04-24T00:12:04;6.43;;;4.38;;
22138;SDS011;25815;52.582;13.408;2023-04-24T00:14:30;6.40;;;3.80;;
22138;SDS011;25815;52.582;13.408;2023-04-24T00:16:56;4.32;;;3.55;;
22138;SDS011;25815;52.582;13.408;2023-04-24T00:19:22;5.03;;;3.90;;
22138;SDS011;25815;52.582;13.408;2023-04-24T00:21:48;6.40;;;4.20;;
22138;SDS011;25815;52.582;13.408;2023-04-24T00:24:15;5.35;;;3.92;;
22138;SDS011;25815;52.582;13.408;2023-04-24T00:26:41;4.40;;;4.00;;
22138;SDS011;25815;52.582;13.408;2023-04-24T00:29:07;5.45;;;4.57;;
22138;SDS011;25815;52.582;13.408;2023-04-24T00:31:33;7.18;;;4.95;;
22138;SDS011;25815;52.582;13.408;2023-04-24T00:33:59;8.73;;;5.10;;
22138;SDS011;25815;52.582;13.408;2023-04-24T00:36:25;7.35;;;5.00;;
22138;SDS011;25815;52.582;13.408;2023-04-24T00:38:52;6.97;;;4.60;;
22138;SDS011;25815;52.582;13.408;2023-04-24T00:41:17;7.68;;;5.38;;
22138;SDS011;25815;52.582;13.408;2023-04-24T00:43:43;7.63;;;5.55;;
22138;SDS011;25815;52.582;13.408;2023-04-24T00:46:10;8.27;;;6.50;;
22138;SDS011;25815;52.582;13.408;2023-04-24T00:48:37;7.53;;;5.82;;
22138;SDS011;25815;52.582;13.408;2023-04-24T00:51:04;7.65;;;5.90;;
22138;SDS011;25815;52.582;13.408;2023-04-24T00:53:30;7.18;;;5.65;;
22138;SDS011;25815;52.582;13.408;2023-04-24T00:55:56;6.97;;;5.22;;
22138;SDS011;25815;52.582;13.408;2023-04-24T00:58:22;6.63;;;5.45;;
22138;SDS011;25815;52.582;13.408;2023-04-24T01:00:49;7.38;;;5.35;;
22138;SDS011;25815;52.582;13.408;2023-04-24T01:03:18;8.90;;;5.70;;
22138;SDS011;25815;52.582;13.408;2023-04-24T01:05:45;6.75;;;5.57;;
22138;SDS011;25815;52.582;13.408;2023-04-24T01:08:11;7.07;;;5.57;;
22138;SDS011;25815;52.582;13.408;2023-04-24T01:10:37;8.20;;;5.70;;
22138;SDS011;25815;52.582;13.408;2023-04-24T01:13:04;8.73;;;5.93;;
22138;SDS011;25815;52.582;13.408;2023-04-24T01:15:30;9.13;;;6.63;;
22138;SDS011;25815;52.582;13.408;2023-04-24T01:17:56;9.23;;;6.43;;
22138;SDS011;25815;52.582;13.408;2023-04-24T01:20:22;6.13;;;5.18;;
22138;SDS011;25815;52.582;13.408;2023-04-24T01:22:49;5.85;;;4.72;;
22138;SDS011;25815;52.582;13.408;2023-04-24T01:25:15;6.38;;;4.85;;
22138;SDS011;25815;52.582;13.408;2023-04-24T01:27:41;8.50;;;4.55;;
22138;SDS011;25815;52.582;13.408;2023-04-24T01:30:07;5.30;;;4.43;;
22138;SDS011;25815;52.582;13.408;2023-04-24T01:32:33;4.82;;;4.03;;
22138;SDS011;25815;52.582;13.408;2023-04-24T01:35:00;7.65;;;4.00;;
22138;SDS011;25815;52.582;13.408;2023-04-24T01:37:26;4.78;;;3.97;;
22138;SDS011;25815;52.582;13.408;2023-04-24T01:39:52;6.07;;;4.60;;
22138;SDS011;25815;52.582;13.408;2023-04-24T01:42:18;4.03;;;3.63;;
22138;SDS011;25815;52.582;13.408;2023-04-24T01:44:44;5.05;;;4.10;;
22138;SDS011;25815;52.582;13.408;2023-04-24T01:47:10;4.53;;;3.63;;
22138;SDS011;25815;52.582;13.408;2023-04-24T01:49:37;5.05;;;3.90;;
22138;SDS011;25815;52.582;13.408;2023-04-24T01:52:03;4.97;;;3.78;;
22138;SDS011;25815;52.582;13.408;2023-04-24T01:54:29;6.38;;;3.97;;
22138;SDS011;25815;52.582;13.408;2023-04-24T01:56:55;4.55;;;3.90;;
22138;SDS011;25815;52.582;13.408;2023-04-24T01:59:21;5.50;;;3.80;;
22138;SDS011;25815;52.582;13.408;2023-04-24T02:01:48;4.00;;;3.63;;
22138;SDS011;25815;52.582;13.408;2023-04-24T02:04:14;5.20;;;4.45;;
22138;SDS011;25815;52.582;13.408;2023-04-24T02:06:40;4.07;;;3.65;;
22138;SDS011;25815;52.582;13.408;2023-04-24T02:09:06;5.22;;;3.80;;
22138;SDS011;25815;52.582;13.408;2023-04-24T02:11:32;7.30;;;4.20;;
22138;SDS011;25815;52.582;13.408;2023-04-24T02:13:58;4.55;;;3.95;;
22138;SDS011;25815;52.582;13.408;2023-04-24T02:16:24;4.93;;;3.92;;
22138;SDS011;25815;52.582;13.408;2023-04-24T02:18:50;5.03;;;4.15;;
22138;SDS011;25815;52.582;13.408;2023-04-24T02:21:16;4.35;;;3.85;;
22138;SDS011;25815;52.582;13.408;2023-04-24T02:23:42;5.88;;;4.47;;
22138;SDS011;25815;52.582;13.408;2023-04-24T02:26:08;5.00;;;4.47;;
22138;SDS011;25815;52.582;13.408;2023-04-24T02:28:34;6.90;;;4.60;;
22138;SDS011;25815;52.582;13.408;2023-04-24T02:31:00;5.85;;;4.53;;
22138;SDS011;25815;52.582;13.408;2023-04-24T02:33:26;4.78;;;4.28;;
22138;SDS011;25815;52.582;13.408;2023-04-24T02:35:52;5.13;;;4.63;;
22138;SDS011;25815;52.582;13.408;2023-04-24T02:38:18;5.63;;;4.78;;
22138;SDS011;25815;52.582;13.408;2023-04-24T02:40:44;6.03;;;5.32;;
22138;SDS011;25815;52.582;13.408;2023-04-24T02:43:10;6.07;;;4.40;;
22138;SDS011;25815;52.582;13.408;2023-04-24T02:45:36;5.20;;;4.53;;
22138;SDS011;25815;52.582;13.408;2023-04-24T02:48:02;6.28;;;5.18;;
22138;SDS011;25815;52.582;13.408;2023-04-24T02:50:28;5.25;;;4.75;;
22138;SDS011;25815;52.582;13.408;2023-04-24T02:52:54;5.97;;;4.75;;
22138;SDS011;25815;52.582;13.408;2023-04-24T02:55:20;5.45;;;4.72;;
22138;SDS011;25815;52.582;13.408;2023-04-24T02:57:46;6.88;;;4.97;;
22138;SDS011;25815;52.582;13.408;2023-04-24T03:00:12;6.93;;;4.97;;
22138;SDS011;25815;52.582;13.408;2023-04-24T03:02:39;6.40;;;4.82;;
22138;SDS011;25815;52.582;13.408;2023-04-24T03:05:05;5.68;;;4.90;;
22138;SDS011;25815;52.582;13.408;2023-04-24T03:07:32;7.10;;;4.80;;
22138;SDS011;25815;52.582;13.408;2023-04-24T03:09:58;6.38;;;5.13;;
22138;SDS011;25815;52.582;13.408;2023-04-24T03:12:24;5.07;;;4.53;;
22138;SDS011;25815;52.582;13.408;2023-04-24T03:14:50;7.40;;;5.03;;
22138;SDS011;25815;52.582;13.408;2023-04-24T03:17:16;5.90;;;5.00;;
22138;SDS011;25815;52.582;13.408;2023-04-24T03:19:42;6.22;;;4.82;;
22138;SDS011;25815;52.582;13.408;2023-04-24T03:22:08;6.35;;;5.00;;
22138;SDS011;25815;52.582;13.408;2023-04-24T03:24:34;7.60;;;5.18;;
22138;SDS011;25815;52.582;13.408;2023-04-24T03:29:26;7.00;;;4.90;;
22138;SDS011;25815;52.582;13.408;2023-04-24T03:31:52;5.72;;;5.00;;
22138;SDS011;25815;52.582;13.408;2023-04-24T03:34:17;7.63;;;4.70;;
22138;SDS011;25815;52.582;13.408;2023-04-24T03:36:43;7.97;;;5.13;;
22138;SDS011;25815;52.582;13.408;2023-04-24T03:39:12;6.75;;;5.35;;
22138;SDS011;25815;52.582;13.408;2023-04-24T03:41:38;5.97;;;5.00;;
22138;SDS011;25815;52.582;13.408;2023-04-24T03:44:04;9.23;;;5.88;;
22138;SDS011;25815;52.582;13.408;2023-04-24T03:46:30;5.93;;;5.03;;
22138;SDS011;25815;52.582;13.408;2023-04-24T03:48:56;8.93;;;5.43;;
22138;SDS011;25815;52.582;13.408;2023-04-24T03:51:21;7.00;;;4.95;;
22138;SDS011;25815;52.582;13.408;2023-04-24T03:53:48;6.32;;;5.20;;
22138;SDS011;25815;52.582;13.408;2023-04-24T03:56:14;7.60;;;5.50;;
22138;SDS011;25815;52.582;13.408;2023-04-24T03:58:40;6.38;;;4.97;;
22138;SDS011;25815;52.582;13.408;2023-04-24T04:01:06;7.28;;;5.50;;
22138;SDS011;25815;52.582;13.408;2023-04-24T04:03:32;5.90;;;5.25;;
22138;SDS011;25815;52.582;13.408;2023-04-24T04:05:58;5.95;;;5.35;;
22138;SDS011;25815;52.582;13.408;2023-04-24T04:08:24;6.78;;;5.43;;
22138;SDS011;25815;52.582;13.408;2023-04-24T04:10:50;6.60;;;5.38;;
22138;SDS011;25815;52.582;13.408;2023-04-24T04:13:16;6.28;;;4.90;;
22138;SDS011;25815;52.582;13.408;2023-04-24T04:15:42;6.00;;;5.40;;
22138;SDS011;25815;52.582;13.408;2023-04-24T04:18:08;7.32;;;5.38;;
22138;SDS011;25815;52.582;13.408;2023-04-24T04:20:34;6.03;;;4.70;;
22138;SDS011;25815;52.582;13.408;2023-04-24T04:23:00;5.60;;;5.03;;
22138;SDS011;25815;52.582;13.408;2023-04-24T04:25:26;5.50;;;5.00;;
22138;SDS011;25815;52.582;13.408;2023-04-24T04:27:52;6.38;;;5.15;;
22138;SDS011;25815;52.582;13.408;2023-04-24T04:30:18;5.25;;;4.68;;
22138;SDS011;25815;52.582;13.408;2023-04-24T04:32:45;7.50;;;5.25;;
22138;SDS011;25815;52.582;13.408;2023-04-24T04:35:12;5.25;;;4.75;;
22138;SDS011;25815;52.582;13.408;2023-04-24T04:37:37;6.25;;;4.68;;
22138;SDS011;25815;52.582;13.408;2023-04-24T04:40:05;6.05;;;4.75;;
22138;SDS011;25815;52.582;13.408;2023-04-24T04:42:31;6.03;;;4.60;;
22138;SDS011;25815;52.582;13.408;2023-04-24T04:44:58;7.22;;;4.63;;
22138;SDS011;25815;52.582;13.408;2023-04-24T04:47:24;5.80;;;4.40;;
22138;SDS011;25815;52.582;13.408;2023-04-24T04:49:51;6.05;;;4.32;;
22138;SDS011;25815;52.582;13.408;2023-04-24T04:52:17;6.50;;;4.55;;
22138;SDS011;25815;52.582;13.408;2023-04-24T04:54:43;5.47;;;4.32;;
22138;SDS011;25815;52.582;13.408;2023-04-24T04:57:10;5.95;;;4.38;;
22138;SDS011;25815;52.582;13.408;2023-04-24T04:59:35;6.22;;;4.38;;
22138;SDS011;25815;52.582;13.408;2023-04-24T05:02:02;5.82;;;4.00;;
22138;SDS011;25815;52.582;13.408;2023-04-24T05:04:28;5.30;;;4.47;;
22138;SDS011;25815;52.582;13.408;2023-04-24T05:06:54;4.60;;;4.18;;
22138;SDS011;25815;52.582;13.408;2023-04-24T05:09:19;4.82;;;3.70;;
22138;SDS011;25815;52.582;13.408;2023-04-24T05:11:45;3.88;;;3.47;;
22138;SDS011;25815;52.582;13.408;2023-04-24T05:14:11;5.63;;;3.55;;
22138;SDS011;25815;52.582;13.408;2023-04-24T05:16:37;5.40;;;3.45;;
22138;SDS011;25815;52.582;13.408;2023-04-24T05:19:03;3.95;;;3.40;;
22138;SDS011;25815;52.582;13.408;2023-04-24T05:21:30;5.38;;;3.90;;
22138;SDS011;25815;52.582;13.408;2023-04-24T05:23:56;4.55;;;3.20;;
22138;SDS011;25815;52.582;13.408;2023-04-24T05:26:22;4.35;;;3.40;;
22138;SDS011;25815;52.582;13.408;2023-04-24T05:28:48;5.70;;;3.50;;
22138;SDS011;25815;52.582;13.408;2023-04-24T05:31:14;5.55;;;3.55;;
22138;SDS011;25815;52.582;13.408;2023-04-24T05:33:42;6.38;;;3.20;;
22138;SDS011;25815;52.582;13.408;2023-04-24T05:36:08;5.22;;;3.60;;
22138;SDS011;25815;52.582;13.408;2023-04-24T05:38:34;6.05;;;3.55;;
22138;SDS011;25815;52.582;13.408;2023-04-24T05:41:00;5.00;;;3.30;;
22138;SDS011;25815;52.582;13.408;2023-04-24T05:43:26;3.92;;;3.00;;
22138;SDS011;25815;52.582;13.408;2023-04-24T05:45:52;3.28;;;2.97;;
22138;SDS011;25815;52.582;13.408;2023-04-24T05:48:18;3.60;;;2.47;;
22138;SDS011;25815;52.582;13.408;2023-04-24T05:50:44;5.35;;;2.70;;
22138;SDS011;25815;52.582;13.408;2023-04-24T05:53:12;3.28;;;2.50;;
22138;SDS011;25815;52.582;13.408;2023-04-24T05:55:38;4.28;;;2.45;;
22138;SDS011;25815;52.582;13.408;2023-04-24T05:58:04;5.82;;;2.65;;
22138;SDS011;25815;52.582;13.408;2023-04-24T06:00:30;4.70;;;2.65;;
22138;SDS011;25815;52.582;13.408;2023-04-24T06:02:56;5.47;;;2.55;;
22138;SDS011;25815;52.582;13.408;2023-04-24T06:05:22;4.40;;;2.70;;
22138;SDS011;25815;52.582;13.408;2023-04-24T06:07:48;3.25;;;2.13;;
22138;SDS011;25815;52.582;13.408;2023-04-24T06:10:14;3.13;;;2.40;;
22138;SDS011;25815;52.582;13.408;2023-04-24T06:12:40;5.28;;;2.13;;
22138;SDS011;25815;52.582;13.408;2023-04-24T06:15:06;3.13;;;2.25;;
22138;SDS011;25815;52.582;13.408;2023-04-24T06:17:33;3.70;;;2.50;;
22138;SDS011;25815;52.582;13.408;2023-04-24T06:19:58;5.53;;;2.58;;
22138;SDS011;25815;52.582;13.408;2023-04-24T06:22:24;3.00;;;2.10;;
22138;SDS011;25815;52.582;13.408;2023-04-24T06:24:50;2.63;;;2.00;;
22138;SDS011;25815;52.582;13.408;2023-04-24T06:27:16;3.17;;;2.15;;
22138;SDS011;25815;52.582;13.408;2023-04-24T06:29:42;4.70;;;1.98;;
22138;SDS011;25815;52.582;13.408;2023-04-24T06:32:08;3.92;;;2.33;;
22138;SDS011;25815;52.582;13.408;2023-04-24T06:34:34;3.70;;;1.70;;
22138;SDS011;25815;52.582;13.408;2023-04-24T06:37:01;3.25;;;1.70;;
22138;SDS011;25815;52.582;13.408;2023-04-24T06:39:27;5.68;;;1.60;;
22138;SDS011;25815;52.582;13.408;2023-04-24T06:41:53;2.42;;;1.75;;
22138;SDS011;25815;52.582;13.408;2023-04-24T06:44:20;4.65;;;1.70;;
22138;SDS011;25815;52.582;13.408;2023-04-24T06:46:45;1.98;;;1.40;;
22138;SDS011;25815;52.582;13.408;2023-04-24T06:49:12;3.22;;;1.35;;
22138;SDS011;25815;52.582;13.408;2023-04-24T06:51:40;2.03;;;1.17;;
22138;SDS011;25815;52.582;13.408;2023-04-24T06:54:06;3.33;;;1.42;;
22138;SDS011;25815;52.582;13.408;2023-04-24T06:56:32;2.00;;;1.42;;
22138;SDS011;25815;52.582;13.408;2023-04-24T06:58:59;2.70;;;1.30;;
22138;SDS011;25815;52.582;13.408;2023-04-24T07:01:25;4.38;;;1.35;;
22138;SDS011;25815;52.582;13.408;2023-04-24T07:03:50;2.72;;;1.30;;
22138;SDS011;25815;52.582;13.408;2023-04-24T07:06:17;1.25;;;1.08;;
22138;SDS011;25815;52.582;13.408;2023-04-24T07:08:46;1.83;;;0.90;;
22138;SDS011;25815;52.582;13.408;2023-04-24T07:11:12;1.88;;;1.38;;
22138;SDS011;25815;52.582;13.408;2023-04-24T07:13:38;1.70;;;1.10;;
22138;SDS011;25815;52.582;13.408;2023-04-24T07:16:06;2.03;;;0.90;;
22138;SDS011;25815;52.582;13.408;2023-04-24T07:18:32;1.40;;;0.77;;
22138;SDS011;25815;52.582;13.408;2023-04-24T07:20:58;1.15;;;0.70;;
22138;SDS011;25815;52.582;13.408;2023-04-24T07:23:24;1.52;;;0.60;;
22138;SDS011;25815;52.582;13.408;2023-04-24T07:25:50;1.35;;;0.60;;
22138;SDS011;25815;52.582;13.408;2023-04-24T07:28:16;2.20;;;0.77;;
22138;SDS011;25815;52.582;13.408;2023-04-24T07:30:43;1.70;;;0.70;;
22138;SDS011;25815;52.582;13.408;2023-04-24T07:33:08;0.77;;;0.60;;
22138;SDS011;25815;52.582;13.408;2023-04-24T07:35:37;1.27;;;0.70;;
22138;SDS011;25815;52.582;13.408;2023-04-24T07:38:03;4.10;;;0.90;;
22138;SDS011;25815;52.582;13.408;2023-04-24T07:40:29;1.27;;;0.70;;
22138;SDS011;25815;52.582;13.408;2023-04-24T07:42:55;1.85;;;0.60;;
22138;SDS011;25815;52.582;13.408;2023-04-24T07:45:21;2.65;;;0.75;;
22138;SDS011;25815;52.582;13.408;2023-04-24T07:47:48;0.98;;;0.70;;
22138;SDS011;25815;52.582;13.408;2023-04-24T07:50:15;1.05;;;0.57;;
22138;SDS011;25815;52.582;13.408;2023-04-24T07:52:41;3.17;;;0.70;;
22138;SDS011;25815;52.582;13.408;2023-04-24T07:55:07;0.40;;;0.40;;
22138;SDS011;25815;52.582;13.408;2023-04-24T07:57:33;1.00;;;0.30;;
22138;SDS011;25815;52.582;13.408;2023-04-24T07:59:59;2.80;;;0.73;;
22138;SDS011;25815;52.582;13.408;2023-04-24T08:02:25;1.85;;;0.50;;
22138;SDS011;25815;52.582;13.408;2023-04-24T08:04:54;1.77;;;0.50;;
22138;SDS011;25815;52.582;13.408;2023-04-24T08:07:20;1.10;;;0.70;;
22138;SDS011;25815;52.582;13.408;2023-04-24T08:09:46;2.42;;;0.90;;
22138;SDS011;25815;52.582;13.408;2023-04-24T08:12:12;1.05;;;0.63;;
22138;SDS011;25815;52.582;13.408;2023-04-24T08:14:38;1.20;;;0.50;;
22138;SDS011;25815;52.582;13.408;2023-04-24T08:17:06;1.90;;;0.47;;
22138;SDS011;25815;52.582;13.408;2023-04-24T08:19:31;1.25;;;0.50;;
22138;SDS011;25815;52.582;13.408;2023-04-24T08:21:57;1.55;;;0.50;;
22138;SDS011;25815;52.582;13.408;2023-04-24T08:24:23;1.05;;;0.40;;
22138;SDS011;25815;52.582;13.408;2023-04-24T08:26:49;0.77;;;0.47;;
22138;SDS011;25815;52.582;13.408;2023-04-24T08:29:16;0.50;;;0.40;;
22138;SDS011;25815;52.582;13.408;2023-04-24T08:31:42;1.23;;;0.57;;
22138;SDS011;25815;52.582;13.408;2023-04-24T08:34:09;1.13;;;0.35;;
22138;SDS011;25815;52.582;13.408;2023-04-24T08:36:35;1.35;;;0.50;;
22138;SDS011;25815;52.582;13.408;2023-04-24T08:39:01;1.13;;;0.40;;
22138;SDS011;25815;52.582;13.408;2023-04-24T08:41:27;1.17;;;0.30;;
22138;SDS011;25815;52.582;13.408;2023-04-24T08:43:53;0.68;;;0.40;;
22138;SDS011;25815;52.582;13.408;2023-04-24T08:46:22;3.63;;;0.30;;
22138;SDS011;25815;52.582;13.408;2023-04-24T08:48:50;0.65;;;0.40;;
22138;SDS011;25815;52.582;13.408;2023-04-24T08:51:16;1.92;;;0.43;;
22138;SDS011;25815;52.582;13.408;2023-04-24T08:53:42;0.60;;;0.40;;
22138;SDS011;25815;52.582;13.408;2023-04-24T08:56:09;1.08;;;0.50;;
22138;SDS011;25815;52.582;13.408;2023-04-24T08:58:35;1.35;;;0.50;;
22138;SDS011;25815;52.582;13.408;2023-04-24T09:01:01;0.77;;;0.30;;
22138;SDS011;25815;52.582;13.408;2023-04-24T09:03:27;0.68;;;0.25;;
22138;SDS011;25815;52.582;13.408;2023-04-24T09:05:54;0.57;;;0.30;;
22138;SDS011;25815;52.582;13.408;2023-04-24T09:08:20;4.53;;;0.50;;
22138;SDS011;25815;52.582;13.408;2023-04-24T09:10:49;0.70;;;0.40;;
22138;SDS011;25815;52.582;13.408;2023-04-24T09:13:15;0.50;;;0.30;;
22138;SDS011;25815;52.582;13.408;2023-04-24T09:15:42;1.15;;;0.60;;
22138;SDS011;25815;52.582;13.408;2023-04-24T09:18:08;1.00;;;0.40;;
22138;SDS011;25815;52.582;13.408;2023-04-24T09:20:34;1.88;;;0.60;;
22138;SDS011;25815;52.582;13.408;2023-04-24T09:23:03;0.85;;;0.40;;
22138;SDS011;25815;52.582;13.408;2023-04-24T09:25:32;2.65;;;0.57;;
22138;SDS011;25815;52.582;13.408;2023-04-24T09:28:02;1.60;;;0.40;;
22138;SDS011;25815;52.582;13.408;2023-04-24T09:30:28;1.20;;;0.47;;
22138;SDS011;25815;52.582;13.408;2023-04-24T09:33:10;1.42;;;0.40;;
22138;SDS011;25815;52.582;13.408;2023-04-24T09:35:39;1.90;;;0.40;;
22138;SDS011;25815;52.582;13.408;2023-04-24T09:38:06;0.45;;;0.30;;
22138;SDS011;25815;52.582;13.408;2023-04-24T09:40:31;1.83;;;0.47;;
22138;SDS011;25815;52.582;13.408;2023-04-24T09:42:59;0.77;;;0.40;;
22138;SDS011;25815;52.582;13.408;2023-04-24T09:45:31;0.57;;;0.30;;
22138;SDS011;25815;52.582;13.408;2023-04-24T09:48:00;1.80;;;0.43;;
22138;SDS011;25815;52.582;13.408;2023-04-24T09:50:26;0.90;;;0.50;;
22138;SDS011;25815;52.582;13.408;2023-04-24T09:52:59;0.65;;;0.30;;
22138;SDS011;25815;52.582;13.408;2023-04-24T09:55:27;2.05;;;0.73;;
22138;SDS011;25815;52.582;13.408;2023-04-24T09:57:57;0.88;;;0.50;;
22138;SDS011;25815;52.582;13.408;2023-04-24T10:00:25;0.95;;;0.50;;
22138;SDS011;25815;52.582;13.408;2023-04-24T10:02:55;1.63;;;0.50;;
22138;SDS011;25815;52.582;13.408;2023-04-24T10:05:27;2.95;;;0.60;;
22138;SDS011;25815;52.582;13.408;2023-04-24T10:07:55;1.08;;;0.70;;
22138;SDS011;25815;52.582;13.408;2023-04-24T10:10:22;0.98;;;0.45;;
22138;SDS011;25815;52.582;13.408;2023-04-24T10:12:48;0.85;;;0.43;;
22138;SDS011;25815;52.582;13.408;2023-04-24T10:15:14;2.67;;;0.57;;
22138;SDS011;25815;52.582;13.408;2023-04-24T10:17:45;1.98;;;0.50;;
22138;SDS011;25815;52.582;13.408;2023-04-24T10:20:16;0.90;;;0.40;;
22138;SDS011;25815;52.582;13.408;2023-04-24T10:22:43;0.65;;;0.45;;
22138;SDS011;25815;52.582;13.408;2023-04-24T10:25:11;0.43;;;0.40;;
22138;SDS011;25815;52.582;13.408;2023-04-24T10:27:37;1.38;;;0.85;;
22138;SDS011;25815;52.582;13.408;2023-04-24T10:30:03;0.80;;;0.40;;
22138;SDS011;25815;52.582;13.408;2023-04-24T10:32:30;0.70;;;0.30;;
22138;SDS011;25815;52.582;13.408;2023-04-24T10:34:56;1.27;;;0.60;;
22138;SDS011;25815;52.582;13.408;2023-04-24T10:37:22;1.27;;;0.68;;
22138;SDS011;25815;52.582;13.408;2023-04-24T10:39:49;0.68;;;0.35;;
22138;SDS011;25815;52.582;13.408;2023-04-24T10:42:16;1.60;;;0.40;;
22138;SDS011;25815;52.582;13.408;2023-04-24T10:44:42;0.70;;;0.45;;
22138;SDS011;25815;52.582;13.408;2023-04-24T10:47:14;1.27;;;0.50;;
22138;SDS011;25815;52.582;13.408;2023-04-24T10:49:40;1.80;;;0.55;;
22138;SDS011;25815;52.582;13.408;2023-04-24T10:52:06;0.98;;;0.40;;
22138;SDS011;25815;52.582;13.408;2023-04-24T10:54:35;1.83;;;0.50;;
22138;SDS011;25815;52.582;13.408;2023-04-24T10:59:45;1.15;;;0.35;;
22138;SDS011;25815;52.582;13.408;2023-04-24T11:02:14;0.85;;;0.47;;
22138;SDS011;25815;52.582;13.408;2023-04-24T11:04:40;1.52;;;0.40;;
22138;SDS011;25815;52.582;13.408;2023-04-24T11:07:08;0.95;;;0.38;;
22138;SDS011;25815;52.582;13.408;2023-04-24T11:09:34;2.00;;;0.52;;
22138;SDS011;25815;52.582;13.408;2023-04-24T11:12:10;0.77;;;0.40;;
22138;SDS011;25815;52.582;13.408;2023-04-24T11:17:30;1.00;;;0.35;;
22138;SDS011;25815;52.582;13.408;2023-04-24T11:20:03;0.45;;;0.30;;
22138;SDS011;25815;52.582;13.408;2023-04-24T11:22:32;1.48;;;0.40;;
22138;SDS011;25815;52.582;13.408;2023-04-24T11:25:00;1.08;;;0.38;;
22138;SDS011;25815;52.582;13.408;2023-04-24T11:27:27;0.80;;;0.50;;
22138;SDS011;25815;52.582;13.408;2023-04-24T11:34:56;0.63;;;0.40;;
22138;SDS011;25815;52.582;13.408;2023-04-24T11:37:23;1.13;;;0.38;;
22138;SDS011;25815;52.582;13.408;2023-04-24T11:39:50;1.80;;;0.50;;
22138;SDS011;25815;52.582;13.408;2023-04-24T11:42:16;2.97;;;0.50;;
22138;SDS011;25815;52.582;13.408;2023-04-24T11:44:43;3.60;;;0.60;;
22138;SDS011;25815;52.582;13.408;2023-04-24T11:47:09;5.13;;;0.93;;
22138;SDS011;25815;52.582;13.408;2023-04-24T11:49:38;3.72;;;1.35;;
22138;SDS011;25815;52.582;13.408;2023-04-24T11:52:04;8.45;;;1.80;;
22138;SDS011;25815;52.582;13.408;2023-04-24T11:54:31;5.60;;;1.40;;
22138;SDS011;25815;52.582;13.408;2023-04-24T11:56:57;5.35;;;1.60;;
22138;SDS011;25815;52.582;13.408;2023-04-24T11:59:23;1.88;;;1.30;;
22138;SDS011;25815;52.582;13.408;2023-04-24T12:01:49;3.00;;;1.00;;
22138;SDS011;25815;52.582;13.408;2023-04-24T12:04:16;2.45;;;1.15;;
22138;SDS011;25815;52.582;13.408;2023-04-24T12:09:27;3.25;;;1.10;;
22138;SDS011;25815;52.582;13.408;2023-04-24T12:11:53;2.83;;;1.10;;
22138;SDS011;25815;52.582;13.408;2023-04-24T12:14:22;1.80;;;1.40;;
22138;SDS011;25815;52.582;13.408;2023-04-24T12:16:49;2.83;;;1.52;;
22138;SDS011;25815;52.582;13.408;2023-04-24T12:19:22;1.98;;;1.45;;
22138;SDS011;25815;52.582;13.408;2023-04-24T12:22:04;1.83;;;1.60;;
22138;SDS011;25815;52.582;13.408;2023-04-24T12:24:30;2.58;;;1.42;;
22138;SDS011;25815;52.582;13.408;2023-04-24T12:26:57;2.35;;;0.93;;
22138;SDS011;25815;52.582;13.408;2023-04-24T12:29:23;2.13;;;0.93;;
22138;SDS011;25815;52.582;13.408;2023-04-24T12:31:49;2.22;;;0.63;;
22138;SDS011;25815;52.582;13.408;2023-04-24T12:39:14;0.75;;;0.50;;
22138;SDS011;25815;52.582;13.408;2023-04-24T12:41:49;3.30;;;0.68;;
22138;SDS011;25815;52.582;13.408;2023-04-24T12:44:16;0.90;;;0.50;;
22138;SDS011;25815;52.582;13.408;2023-04-24T12:46:43;1.35;;;0.52;;
22138;SDS011;25815;52.582;13.408;2023-04-24T12:49:09;2.17;;;0.45;;
22138;SDS011;25815;52.582;13.408;2023-04-24T12:51:35;0.43;;;0.40;;
22138;SDS011;25815;52.582;13.408;2023-04-24T12:54:01;0.73;;;0.40;;
22138;SDS011;25815;52.582;13.408;2023-04-24T12:56:27;1.52;;;0.75;;
22138;SDS011;25815;52.582;13.408;2023-04-24T12:58:53;1.77;;;0.40;;
22138;SDS011;25815;52.582;13.408;2023-04-24T13:01:19;1.35;;;0.60;;
22138;SDS011;25815;52.582;13.408;2023-04-24T13:03:45;1.42;;;0.55;;
22138;SDS011;25815;52.582;13.408;2023-04-24T13:06:11;1.38;;;0.40;;
22138;SDS011;25815;52.582;13.408;2023-04-24T13:08:37;1.10;;;0.57;;
22138;SDS011;25815;52.582;13.408;2023-04-24T13:11:03;2.72;;;0.60;;
22138;SDS011;25815;52.582;13.408;2023-04-24T13:13:29;3.10;;;0.60;;
22138;SDS011;25815;52.582;13.408;2023-04-24T13:15:55;2.50;;;0.60;;
22138;SDS011;25815;52.582;13.408;2023-04-24T13:18:21;3.10;;;0.60;;
22138;SDS011;25815;52.582;13.408;2023-04-24T13:20:47;1.23;;;0.57;;
22138;SDS011;25815;52.582;13.408;2023-04-24T13:23:13;2.15;;;0.50;;
22138;SDS011;25815;52.582;13.408;2023-04-24T13:25:39;2.13;;;0.60;;
22138;SDS011;25815;52.582;13.408;2023-04-24T13:28:06;0.95;;;0.47;;
22138;SDS011;25815;52.582;13.408;2023-04-24T13:30:31;2.17;;;0.50;;
22138;SDS011;25815;52.582;13.408;2023-04-24T13:32:57;1.38;;;0.60;;
22138;SDS011;25815;52.582;13.408;2023-04-24T13:35:23;1.63;;;0.68;;
22138;SDS011;25815;52.582;13.408;2023-04-24T13:37:49;1.20;;;0.70;;
22138;SDS011;25815;52.582;13.408;2023-04-24T13:40:15;1.13;;;0.60;;
22138;SDS011;25815;52.582;13.408;2023-04-24T13:42:41;1.52;;;0.68;;
22138;SDS011;25815;52.582;13.408;2023-04-24T13:45:07;1.42;;;0.60;;
22138;SDS011;25815;52.582;13.408;2023-04-24T13:47:33;4.97;;;2.42;;
22138;SDS011;25815;52.582;13.408;2023-04-24T13:50:00;1.95;;;0.70;;
22138;SDS011;25815;52.582;13.408;2023-04-24T13:52:27;1.52;;;0.70;;
22138;SDS011;25815;52.582;13.408;2023-04-24T13:54:53;0.75;;;0.50;;
22138;SDS011;25815;52.582;13.408;2023-04-24T13:57:20;2.67;;;1.35;;
22138;SDS011;25815;52.582;13.408;2023-04-24T13:59:46;2.55;;;0.70;;
22138;SDS011;25815;52.582;13.408;2023-04-24T14:02:12;0.98;;;0.45;;
22138;SDS011;25815;52.582;13.408;2023-04-24T14:04:38;8.25;;;2.13;;
22138;SDS011;25815;52.582;13.408;2023-04-24T14:07:04;2.63;;;1.25;;
22138;SDS011;25815;52.582;13.408;2023-04-24T14:09:30;1.15;;;0.50;;
22138;SDS011;25815;52.582;13.408;2023-04-24T14:11:57;3.20;;;1.50;;
22138;SDS011;25815;52.582;13.408;2023-04-24T14:14:23;3.72;;;1.23;;
22138;SDS011;25815;52.582;13.408;2023-04-24T14:16:49;1.33;;;0.80;;
22138;SDS011;25815;52.582;13.408;2023-04-24T14:19:15;4.20;;;1.90;;
22138;SDS011;25815;52.582;13.408;2023-04-24T14:21:40;2.38;;;0.95;;
22138;SDS011;25815;52.582;13.408;2023-04-24T14:24:07;3.45;;;1.67;;
22138;SDS011;25815;52.582;13.408;2023-04-24T14:26:34;1.20;;;0.80;;
22138;SDS011;25815;52.582;13.408;2023-04-24T14:29:00;2.67;;;0.65;;
22138;SDS011;25815;52.582;13.408;2023-04-24T14:31:26;0.75;;;0.73;;
22138;SDS011;25815;52.582;13.408;2023-04-24T14:33:52;1.63;;;0.40;;
22138;SDS011;25815;52.582;13.408;2023-04-24T14:36:18;0.55;;;0.40;;
22138;SDS011;25815;52.582;13.408;2023-04-24T14:38:44;0.85;;;0.55;;
22138;SDS011;25815;52.582;13.408;2023-04-24T14:41:10;0.80;;;0.50;;
22138;SDS011;25815;52.582;13.408;2023-04-24T14:43:36;1.75;;;0.65;;
22138;SDS011;25815;52.582;13.408;2023-04-24T14:46:03;1.48;;;0.40;;
22138;SDS011;25815;52.582;13.408;2023-04-24T14:48:29;1.65;;;0.60;;
22138;SDS011;25815;52.582;13.408;2023-04-24T14:50:55;0.43;;;0.40;;